createdAt,value
2017-10-17T00:00:50.219Z,0
2017-10-17T00:01:51.610Z,0
2017-10-17T00:02:53.002Z,0
2017-10-17T00:03:54.395Z,0
2017-10-17T00:04:55.788Z,0
2017-10-17T00:05:57.176Z,0
2017-10-17T00:06:58.567Z,0
2017-10-17T00:07:59.959Z,0
2017-10-17T00:09:01.350Z,0
2017-10-17T00:10:02.744Z,0
2017-10-17T00:11:04.139Z,0
2017-10-17T00:12:05.531Z,0
2017-10-17T00:13:06.920Z,0
2017-10-17T00:14:08.312Z,0
2017-10-17T00:15:09.728Z,0
2017-10-17T00:16:11.094Z,0
2017-10-17T00:17:12.492Z,0
2017-10-17T00:18:13.882Z,0
2017-10-17T00:19:15.273Z,0
2017-10-17T00:20:16.664Z,0
2017-10-17T00:21:18.053Z,0
2017-10-17T00:22:19.443Z,0
2017-10-17T00:23:20.836Z,0
2017-10-17T00:24:22.233Z,0
2017-10-17T00:25:23.623Z,0
2017-10-17T00:26:25.014Z,0
2017-10-17T00:27:26.408Z,0
2017-10-17T00:28:27.800Z,0
2017-10-17T00:29:29.192Z,0
2017-10-17T00:30:30.585Z,0
2017-10-17T00:31:31.978Z,0
2017-10-17T00:32:34.281Z,0
2017-10-17T00:33:35.726Z,0
2017-10-17T00:34:37.113Z,0
2017-10-17T00:35:38.515Z,0
2017-10-17T00:36:39.896Z,0
2017-10-17T00:37:41.292Z,0
2017-10-17T00:38:42.682Z,0
2017-10-17T00:39:44.075Z,0
2017-10-17T00:40:45.467Z,0
2017-10-17T00:41:46.854Z,0
2017-10-17T00:42:48.247Z,0
2017-10-17T00:43:49.636Z,0
2017-10-17T00:44:51.027Z,0
2017-10-17T00:45:52.419Z,0
2017-10-17T00:46:53.815Z,0
2017-10-17T00:47:55.215Z,0
2017-10-17T00:48:56.598Z,0
2017-10-17T00:49:57.990Z,0
2017-10-17T00:50:59.380Z,0
2017-10-17T00:52:00.775Z,0
2017-10-17T00:53:02.170Z,0
2017-10-17T00:54:03.566Z,0
2017-10-17T00:55:04.958Z,0
2017-10-17T00:56:06.347Z,0
2017-10-17T00:57:07.738Z,0
2017-10-17T00:58:09.130Z,0
2017-10-17T00:59:10.520Z,0
2017-10-17T01:00:11.914Z,0
2017-10-17T01:01:13.306Z,0
2017-10-17T01:02:14.699Z,0
2017-10-17T01:03:16.091Z,0
2017-10-17T01:04:17.477Z,0
2017-10-17T01:05:18.868Z,0
2017-10-17T01:06:20.266Z,0
2017-10-17T01:07:21.654Z,0
2017-10-17T01:08:23.046Z,0
2017-10-17T01:09:24.442Z,0
2017-10-17T01:10:25.834Z,0
2017-10-17T01:11:27.221Z,0
2017-10-17T01:12:28.611Z,0
2017-10-17T01:13:30.004Z,0
2017-10-17T01:14:31.399Z,0
2017-10-17T01:15:32.792Z,0
2017-10-17T01:16:34.185Z,0
2017-10-17T01:17:35.571Z,0
2017-10-17T01:18:36.962Z,0
2017-10-17T01:19:38.354Z,0
2017-10-17T01:20:39.747Z,0
2017-10-17T01:21:41.140Z,0
2017-10-17T01:22:42.533Z,0
2017-10-17T01:23:43.927Z,0
2017-10-17T01:24:45.315Z,0
2017-10-17T01:25:46.709Z,0
2017-10-17T01:26:48.101Z,0
2017-10-17T01:27:49.492Z,0
2017-10-17T01:28:50.883Z,0
2017-10-17T01:29:52.275Z,0
2017-10-17T01:30:53.673Z,0
2017-10-17T01:31:55.064Z,0
2017-10-17T01:32:56.455Z,0
2017-10-17T01:33:57.846Z,0
2017-10-17T01:34:59.236Z,0
2017-10-17T01:36:00.635Z,0
2017-10-17T01:37:02.029Z,0
2017-10-17T01:38:03.424Z,0
2017-10-17T01:39:04.808Z,0
2017-10-17T01:40:06.200Z,0
2017-10-17T01:41:07.593Z,0
2017-10-17T01:42:08.984Z,0
2017-10-17T01:43:10.376Z,0
2017-10-17T01:44:11.770Z,0
2017-10-17T01:45:13.165Z,0
2017-10-17T01:46:14.555Z,0
2017-10-17T01:47:15.946Z,0
2017-10-17T01:48:17.338Z,0
2017-10-17T01:49:18.730Z,0
2017-10-17T01:50:20.121Z,0
2017-10-17T01:51:21.516Z,0
2017-10-17T01:52:22.910Z,0
2017-10-17T01:53:24.296Z,0
2017-10-17T01:54:25.688Z,0
2017-10-17T01:55:27.077Z,0
2017-10-17T01:56:28.466Z,0
2017-10-17T01:57:29.859Z,0
2017-10-17T01:58:31.254Z,0
2017-10-17T01:59:32.648Z,0
2017-10-17T02:00:34.036Z,0
2017-10-17T02:01:35.429Z,0
2017-10-17T02:02:36.817Z,0
2017-10-17T02:03:38.208Z,0
2017-10-17T02:04:39.603Z,0
2017-10-17T02:05:40.994Z,0
2017-10-17T02:06:42.384Z,0
2017-10-17T02:07:43.775Z,0
2017-10-17T02:08:45.207Z,0
2017-10-17T02:09:46.601Z,0
2017-10-17T02:10:47.989Z,0
2017-10-17T02:11:49.383Z,0
2017-10-17T02:12:50.782Z,0
2017-10-17T02:13:52.174Z,0
2017-10-17T02:14:53.563Z,0
2017-10-17T02:15:54.955Z,0
2017-10-17T02:16:56.351Z,0
2017-10-17T02:17:58.332Z,0
2017-10-17T02:18:59.729Z,0
2017-10-17T02:20:01.120Z,0
2017-10-17T02:21:02.520Z,0
2017-10-17T02:22:03.913Z,0
2017-10-17T02:23:05.307Z,0
2017-10-17T02:24:06.722Z,0
2017-10-17T02:25:08.095Z,0
2017-10-17T02:26:09.484Z,0
2017-10-17T02:27:10.876Z,0
2017-10-17T02:28:12.271Z,0
2017-10-17T02:29:13.660Z,0
2017-10-17T02:30:15.051Z,0
2017-10-17T02:31:16.442Z,0
2017-10-17T02:32:17.834Z,0
2017-10-17T02:33:19.228Z,0
2017-10-17T02:34:20.620Z,0
2017-10-17T02:35:22.013Z,0
2017-10-17T02:36:23.405Z,0
2017-10-17T02:37:24.797Z,0
2017-10-17T02:38:26.185Z,0
2017-10-17T02:39:27.580Z,0
2017-10-17T02:40:28.968Z,0
2017-10-17T02:41:30.362Z,0
2017-10-17T02:42:31.760Z,0
2017-10-17T02:43:33.150Z,0
2017-10-17T02:44:34.542Z,0
2017-10-17T02:45:35.932Z,0
2017-10-17T02:46:37.344Z,0
2017-10-17T02:47:38.736Z,0
2017-10-17T02:48:40.131Z,0
2017-10-17T02:49:41.521Z,0
2017-10-17T02:50:42.910Z,0
2017-10-17T02:51:44.300Z,0
2017-10-17T02:52:45.691Z,0
2017-10-17T02:53:47.088Z,0
2017-10-17T02:54:48.476Z,0
2017-10-17T02:55:49.872Z,0
2017-10-17T02:56:51.264Z,0
2017-10-17T02:57:52.658Z,0
2017-10-17T02:58:54.045Z,0
2017-10-17T02:59:55.436Z,0
2017-10-17T03:00:56.830Z,0
2017-10-17T03:01:58.228Z,0
2017-10-17T03:02:59.613Z,0
2017-10-17T03:04:01.005Z,0
2017-10-17T03:05:02.393Z,0
2017-10-17T03:06:03.786Z,0
2017-10-17T03:07:05.177Z,0
2017-10-17T03:08:06.566Z,0
2017-10-17T03:09:07.958Z,0
2017-10-17T03:10:09.347Z,0
2017-10-17T03:11:10.743Z,0
2017-10-17T03:12:12.135Z,0
2017-10-17T03:13:13.523Z,0
2017-10-17T03:14:14.915Z,0
2017-10-17T03:15:16.303Z,0
2017-10-17T03:16:17.697Z,0
2017-10-17T03:17:19.093Z,0
2017-10-17T03:18:20.487Z,0
2017-10-17T03:19:21.881Z,0
2017-10-17T03:20:23.268Z,0
2017-10-17T03:21:24.661Z,0
2017-10-17T03:22:26.053Z,0
2017-10-17T03:23:27.444Z,0
2017-10-17T03:24:28.840Z,0
2017-10-17T03:25:30.231Z,0
2017-10-17T03:26:31.622Z,0
2017-10-17T03:27:33.012Z,0
2017-10-17T03:28:34.401Z,0
2017-10-17T03:29:35.795Z,0
2017-10-17T03:30:37.186Z,0
2017-10-17T03:31:38.574Z,0
2017-10-17T03:32:39.971Z,0
2017-10-17T03:33:41.359Z,0
2017-10-17T03:34:42.750Z,0
2017-10-17T03:35:44.138Z,0
2017-10-17T03:36:45.530Z,0
2017-10-17T03:37:46.921Z,0
2017-10-17T03:38:48.313Z,0
2017-10-17T03:39:49.706Z,0
2017-10-17T03:40:51.098Z,0
2017-10-17T03:41:52.488Z,0
2017-10-17T03:42:53.886Z,0
2017-10-17T03:43:55.324Z,0
2017-10-17T03:44:56.715Z,0
2017-10-17T03:45:58.111Z,0
2017-10-17T03:46:59.501Z,0
2017-10-17T03:48:00.894Z,0
2017-10-17T03:49:02.282Z,0
2017-10-17T03:50:03.675Z,0
2017-10-17T03:51:05.067Z,0
2017-10-17T03:52:06.456Z,0
2017-10-17T03:53:07.851Z,0
2017-10-17T03:54:09.245Z,0
2017-10-17T03:55:10.634Z,0
2017-10-17T03:56:12.024Z,0
2017-10-17T03:57:13.419Z,0
2017-10-17T03:58:14.807Z,0
2017-10-17T03:59:16.197Z,0
2017-10-17T04:00:17.586Z,0
2017-10-17T04:01:18.980Z,0
2017-10-17T04:02:20.377Z,0
2017-10-17T04:03:21.759Z,0
2017-10-17T04:04:23.153Z,0
2017-10-17T04:05:24.544Z,0
2017-10-17T04:06:25.935Z,0
2017-10-17T04:07:27.332Z,0
2017-10-17T04:08:28.722Z,0
2017-10-17T04:09:30.114Z,0
2017-10-17T04:10:31.505Z,0
2017-10-17T04:11:32.895Z,0
2017-10-17T04:12:34.287Z,0
2017-10-17T04:13:35.676Z,0
2017-10-17T04:14:37.067Z,0
2017-10-17T04:15:38.461Z,0
2017-10-17T04:16:39.873Z,0
2017-10-17T04:17:41.238Z,0
2017-10-17T04:18:42.628Z,0
2017-10-17T04:19:44.022Z,0
2017-10-17T04:20:45.412Z,0
2017-10-17T04:21:46.803Z,0
2017-10-17T04:22:48.197Z,0
2017-10-17T04:23:49.584Z,0
2017-10-17T04:24:50.978Z,0
2017-10-17T04:25:52.375Z,0
2017-10-17T04:26:53.768Z,0
2017-10-17T04:27:55.167Z,0
2017-10-17T04:28:56.566Z,0
2017-10-17T04:29:57.956Z,0
2017-10-17T04:30:59.348Z,0
2017-10-17T04:32:00.737Z,0
2017-10-17T04:33:02.136Z,0
2017-10-17T04:34:03.525Z,0
2017-10-17T04:35:04.916Z,0
2017-10-17T04:36:06.312Z,0
2017-10-17T04:37:07.708Z,0
2017-10-17T04:38:09.134Z,0
2017-10-17T04:39:10.497Z,0
2017-10-17T04:40:11.893Z,0
2017-10-17T04:41:13.285Z,0
2017-10-17T04:42:14.675Z,0
2017-10-17T04:43:16.071Z,0
2017-10-17T04:44:17.470Z,0
2017-10-17T04:45:18.861Z,0
2017-10-17T04:46:20.254Z,0
2017-10-17T04:47:21.649Z,0
2017-10-17T04:48:23.038Z,0
2017-10-17T04:49:24.431Z,0
2017-10-17T04:50:25.821Z,0
2017-10-17T04:51:27.213Z,0
2017-10-17T04:52:28.604Z,0
2017-10-17T04:53:29.995Z,0
2017-10-17T04:54:31.386Z,0
2017-10-17T04:55:32.781Z,0
2017-10-17T04:56:34.205Z,0
2017-10-17T04:57:35.606Z,0
2017-10-17T04:58:36.999Z,0
2017-10-17T04:59:38.384Z,0
2017-10-17T05:00:39.779Z,0
2017-10-17T05:01:41.166Z,0
2017-10-17T05:02:42.561Z,0
2017-10-17T05:03:43.952Z,0
2017-10-17T05:04:45.346Z,0
2017-10-17T05:05:46.742Z,0
2017-10-17T05:06:48.128Z,0
2017-10-17T05:07:49.520Z,0
2017-10-17T05:08:50.913Z,0
2017-10-17T05:09:52.302Z,0
2017-10-17T05:10:53.699Z,0
2017-10-17T05:11:55.092Z,0
2017-10-17T05:12:56.486Z,0
2017-10-17T05:13:57.874Z,0
2017-10-17T05:14:59.264Z,0
2017-10-17T05:16:00.771Z,0
2017-10-17T05:17:02.146Z,0
2017-10-17T05:18:03.540Z,0
2017-10-17T05:19:04.995Z,0
2017-10-17T05:20:06.386Z,0
2017-10-17T05:21:07.776Z,0
2017-10-17T05:22:09.168Z,0
2017-10-17T05:23:10.558Z,0
2017-10-17T05:24:11.953Z,0
2017-10-17T05:25:13.343Z,0
2017-10-17T05:26:14.975Z,0
2017-10-17T05:27:16.377Z,0
2017-10-17T05:28:17.764Z,0
2017-10-17T05:29:19.156Z,0
2017-10-17T05:30:20.548Z,0
2017-10-17T05:31:21.946Z,0
2017-10-17T05:32:23.652Z,0
2017-10-17T05:33:25.040Z,0
2017-10-17T05:34:26.433Z,0
2017-10-17T05:35:27.824Z,0
2017-10-17T05:36:29.216Z,0
2017-10-17T05:37:30.607Z,0
2017-10-17T05:38:32.000Z,0
2017-10-17T05:39:33.396Z,0
2017-10-17T05:40:34.789Z,0
2017-10-17T05:41:36.185Z,0
2017-10-17T05:42:37.572Z,0
2017-10-17T05:43:38.962Z,0
2017-10-17T05:44:40.411Z,0
2017-10-17T05:45:41.801Z,0
2017-10-17T05:46:43.195Z,0
2017-10-17T05:47:44.603Z,0
2017-10-17T05:48:46.000Z,0
2017-10-17T05:49:48.055Z,0
2017-10-17T05:50:49.446Z,0
2017-10-17T05:51:50.838Z,0
2017-10-17T05:52:52.230Z,0
2017-10-17T05:53:53.623Z,0
2017-10-17T05:54:55.018Z,0
2017-10-17T05:55:57.119Z,0
2017-10-17T05:56:58.512Z,0
2017-10-17T05:57:59.907Z,0
2017-10-17T05:59:01.297Z,0
2017-10-17T06:00:02.688Z,0
2017-10-17T06:01:04.083Z,0
2017-10-17T06:02:05.478Z,0
2017-10-17T06:03:06.882Z,0
2017-10-17T06:04:08.273Z,0
2017-10-17T06:05:09.674Z,0
2017-10-17T06:06:11.062Z,0
2017-10-17T06:07:12.454Z,0
2017-10-17T06:08:13.852Z,0
2017-10-17T06:09:15.246Z,0
2017-10-17T06:10:16.641Z,0
2017-10-17T06:11:18.034Z,0
2017-10-17T06:12:19.425Z,0
2017-10-17T06:13:20.836Z,0
2017-10-17T06:14:22.210Z,0
2017-10-17T06:15:23.605Z,0
2017-10-17T06:16:24.999Z,0
2017-10-17T06:17:26.393Z,0
2017-10-17T06:18:27.788Z,0
2017-10-17T06:19:29.181Z,0
2017-10-17T06:20:30.570Z,0
2017-10-17T06:21:31.961Z,0
2017-10-17T06:22:33.353Z,0
2017-10-17T06:23:34.766Z,0
2017-10-17T06:24:36.162Z,0
2017-10-17T06:25:37.550Z,0
2017-10-17T06:26:38.945Z,0
2017-10-17T06:27:40.338Z,0
2017-10-17T06:28:41.732Z,0
2017-10-17T06:29:43.127Z,0
2017-10-17T06:30:44.522Z,0
2017-10-17T06:31:45.914Z,5
2017-10-17T06:32:47.306Z,5
2017-10-17T06:33:48.698Z,5
2017-10-17T06:34:50.090Z,5
2017-10-17T06:35:51.488Z,5
2017-10-17T06:36:52.877Z,5
2017-10-17T06:37:54.270Z,5
2017-10-17T06:38:55.665Z,5
2017-10-17T06:39:57.057Z,5
2017-10-17T06:40:58.447Z,5
2017-10-17T06:41:59.841Z,5
2017-10-17T06:43:01.230Z,5
2017-10-17T06:44:02.628Z,5
2017-10-17T06:45:04.023Z,5
2017-10-17T06:46:05.416Z,5
2017-10-17T06:47:06.807Z,11
2017-10-17T06:48:08.201Z,11
2017-10-17T06:49:09.593Z,11
2017-10-17T06:50:10.986Z,11
2017-10-17T06:51:12.377Z,11
2017-10-17T06:52:13.773Z,11
2017-10-17T06:53:15.169Z,11
2017-10-17T06:54:16.562Z,11
2017-10-17T06:55:17.955Z,11
2017-10-17T06:56:19.349Z,11
2017-10-17T06:57:20.740Z,11
2017-10-17T06:58:22.135Z,11
2017-10-17T06:59:23.532Z,11
2017-10-17T07:00:24.928Z,11
2017-10-17T07:01:26.320Z,11
2017-10-17T07:02:27.714Z,16
2017-10-17T07:03:29.105Z,16
2017-10-17T07:04:30.526Z,16
2017-10-17T07:05:31.896Z,16
2017-10-17T07:06:33.294Z,16
2017-10-17T07:07:34.687Z,16
2017-10-17T07:08:36.081Z,22
2017-10-17T07:09:37.475Z,22
2017-10-17T07:10:38.871Z,22
2017-10-17T07:11:40.279Z,22
2017-10-17T07:12:41.672Z,22
2017-10-17T07:13:43.078Z,22
2017-10-17T07:14:44.466Z,28
2017-10-17T07:15:45.858Z,28
2017-10-17T07:16:47.253Z,28
2017-10-17T07:17:48.647Z,33
2017-10-17T07:18:50.043Z,33
2017-10-17T07:19:51.438Z,33
2017-10-17T07:20:52.832Z,33
2017-10-17T07:21:54.227Z,33
2017-10-17T07:22:55.621Z,33
2017-10-17T07:23:57.020Z,33
2017-10-17T07:24:58.411Z,39
2017-10-17T07:25:59.808Z,39
2017-10-17T07:27:01.203Z,39
2017-10-17T07:28:02.600Z,39
2017-10-17T07:29:03.994Z,39
2017-10-17T07:30:05.391Z,39
2017-10-17T07:31:06.783Z,39
2017-10-17T07:32:08.177Z,39
2017-10-17T07:33:09.572Z,39
2017-10-17T07:34:10.965Z,39
2017-10-17T07:35:12.367Z,39
2017-10-17T07:36:13.768Z,39
2017-10-17T07:37:15.154Z,39
2017-10-17T07:38:16.570Z,45
2017-10-17T07:39:17.963Z,39
2017-10-17T07:40:19.374Z,45
2017-10-17T07:41:20.753Z,45
2017-10-17T07:42:22.149Z,45
2017-10-17T07:43:23.545Z,45
2017-10-17T07:44:24.940Z,45
2017-10-17T07:45:26.333Z,45
2017-10-17T07:46:27.725Z,45
2017-10-17T07:47:29.122Z,45
2017-10-17T07:48:30.519Z,45
2017-10-17T07:49:31.915Z,50
2017-10-17T07:50:33.311Z,50
2017-10-17T07:51:34.707Z,56
2017-10-17T07:52:36.102Z,56
2017-10-17T07:53:37.499Z,56
2017-10-17T07:54:38.893Z,56
2017-10-17T07:55:40.291Z,61
2017-10-17T07:56:41.689Z,61
2017-10-17T07:57:43.086Z,61
2017-10-17T07:58:44.479Z,61
2017-10-17T07:59:45.876Z,61
2017-10-17T08:00:47.269Z,61
2017-10-17T08:01:48.666Z,67
2017-10-17T08:02:50.061Z,67
2017-10-17T08:03:51.461Z,67
2017-10-17T08:04:52.856Z,67
2017-10-17T08:05:54.252Z,67
2017-10-17T08:06:55.649Z,67
2017-10-17T08:07:57.042Z,73
2017-10-17T08:08:58.439Z,73
2017-10-17T08:09:59.840Z,73
2017-10-17T08:11:01.231Z,73
2017-10-17T08:12:02.630Z,73
2017-10-17T08:13:04.025Z,73
2017-10-17T08:14:05.420Z,73
2017-10-17T08:15:06.813Z,73
2017-10-17T08:16:08.210Z,78
2017-10-17T08:17:09.603Z,78
2017-10-17T08:18:11.004Z,78
2017-10-17T08:19:12.402Z,78
2017-10-17T08:20:13.795Z,84
2017-10-17T08:21:15.213Z,84
2017-10-17T08:22:16.609Z,84
2017-10-17T08:23:18.005Z,84
2017-10-17T08:24:19.403Z,84
2017-10-17T08:25:20.799Z,84
2017-10-17T08:26:22.197Z,84
2017-10-17T08:27:23.591Z,84
2017-10-17T08:28:24.986Z,84
2017-10-17T08:29:26.381Z,84
2017-10-17T08:30:27.775Z,84
2017-10-17T08:31:29.172Z,84
2017-10-17T08:32:30.573Z,84
2017-10-17T08:33:31.967Z,84
2017-10-17T08:34:33.370Z,84
2017-10-17T08:35:34.758Z,90
2017-10-17T08:36:36.154Z,90
2017-10-17T08:37:37.551Z,90
2017-10-17T08:38:38.948Z,90
2017-10-17T08:39:40.347Z,95
2017-10-17T08:40:41.744Z,95
2017-10-17T08:41:43.138Z,95
2017-10-17T08:42:44.533Z,95
2017-10-17T08:43:45.926Z,95
2017-10-17T08:44:47.324Z,95
2017-10-17T08:45:48.721Z,101
2017-10-17T08:46:50.119Z,101
2017-10-17T08:47:51.514Z,101
2017-10-17T08:48:52.913Z,101
2017-10-17T08:49:54.310Z,106
2017-10-17T08:50:55.706Z,106
2017-10-17T08:51:57.106Z,106
2017-10-17T08:52:58.505Z,106
2017-10-17T08:53:59.906Z,112
2017-10-17T08:55:01.306Z,118
2017-10-17T08:56:02.702Z,112
2017-10-17T08:57:04.104Z,112
2017-10-17T08:58:05.499Z,112
2017-10-17T08:59:06.897Z,112
2017-10-17T09:00:08.293Z,118
2017-10-17T09:01:09.694Z,118
2017-10-17T09:02:11.089Z,118
2017-10-17T09:03:12.484Z,129
2017-10-17T09:04:13.883Z,123
2017-10-17T09:05:15.282Z,123
2017-10-17T09:06:16.677Z,129
2017-10-17T09:07:18.075Z,135
2017-10-17T09:08:19.474Z,135
2017-10-17T09:09:20.870Z,135
2017-10-17T09:10:22.265Z,140
2017-10-17T09:11:23.675Z,140
2017-10-17T09:12:25.063Z,140
2017-10-17T09:13:26.456Z,140
2017-10-17T09:14:27.857Z,140
2017-10-17T09:15:29.257Z,140
2017-10-17T09:16:30.653Z,140
2017-10-17T09:17:32.053Z,146
2017-10-17T09:18:33.452Z,146
2017-10-17T09:19:34.847Z,151
2017-10-17T09:20:36.244Z,151
2017-10-17T09:21:37.670Z,163
2017-10-17T09:22:39.070Z,191
2017-10-17T09:23:40.468Z,219
2017-10-17T09:24:41.865Z,213
2017-10-17T09:25:43.264Z,241
2017-10-17T09:26:44.660Z,247
2017-10-17T09:27:46.059Z,258
2017-10-17T09:28:47.459Z,275
2017-10-17T09:29:48.859Z,258
2017-10-17T09:30:50.261Z,225
2017-10-17T09:31:51.655Z,225
2017-10-17T09:32:53.051Z,247
2017-10-17T09:33:54.450Z,258
2017-10-17T09:34:55.849Z,264
2017-10-17T09:35:57.246Z,258
2017-10-17T09:36:58.642Z,275
2017-10-17T09:38:00.040Z,281
2017-10-17T09:39:01.441Z,264
2017-10-17T09:40:02.842Z,275
2017-10-17T09:41:04.238Z,270
2017-10-17T09:42:05.640Z,270
2017-10-17T09:43:07.033Z,270
2017-10-17T09:44:08.434Z,264
2017-10-17T09:45:09.834Z,275
2017-10-17T09:46:11.232Z,270
2017-10-17T09:47:12.630Z,264
2017-10-17T09:48:14.030Z,270
2017-10-17T09:49:15.430Z,275
2017-10-17T09:50:16.824Z,270
2017-10-17T09:51:18.226Z,286
2017-10-17T09:52:19.626Z,298
2017-10-17T09:53:21.023Z,298
2017-10-17T09:54:22.422Z,286
2017-10-17T09:55:23.820Z,303
2017-10-17T09:56:25.220Z,303
2017-10-17T09:57:26.620Z,309
2017-10-17T09:58:28.020Z,303
2017-10-17T09:59:29.420Z,292
2017-10-17T10:00:30.822Z,286
2017-10-17T10:01:32.217Z,292
2017-10-17T10:02:33.618Z,286
2017-10-17T10:03:35.017Z,286
2017-10-17T10:04:36.415Z,292
2017-10-17T10:05:37.817Z,303
2017-10-17T10:06:39.217Z,309
2017-10-17T10:07:40.618Z,315
2017-10-17T10:08:42.019Z,315
2017-10-17T10:09:43.416Z,320
2017-10-17T10:10:44.816Z,326
2017-10-17T10:11:46.215Z,320
2017-10-17T10:12:47.615Z,309
2017-10-17T10:13:49.017Z,309
2017-10-17T10:14:50.414Z,320
2017-10-17T10:15:51.815Z,320
2017-10-17T10:16:53.213Z,331
2017-10-17T10:17:54.613Z,326
2017-10-17T10:18:56.014Z,320
2017-10-17T10:19:57.414Z,315
2017-10-17T10:20:58.814Z,326
2017-10-17T10:22:00.211Z,331
2017-10-17T10:23:01.613Z,331
2017-10-17T10:24:03.020Z,337
2017-10-17T10:25:04.417Z,337
2017-10-17T10:26:05.821Z,331
2017-10-17T10:27:07.223Z,337
2017-10-17T10:28:08.625Z,348
2017-10-17T10:29:10.020Z,348
2017-10-17T10:30:11.419Z,348
2017-10-17T10:31:12.818Z,360
2017-10-17T10:32:14.218Z,360
2017-10-17T10:33:15.617Z,376
2017-10-17T10:34:17.019Z,376
2017-10-17T10:35:18.427Z,371
2017-10-17T10:36:19.827Z,371
2017-10-17T10:37:21.225Z,371
2017-10-17T10:38:22.628Z,388
2017-10-17T10:39:24.026Z,388
2017-10-17T10:40:25.429Z,388
2017-10-17T10:41:26.835Z,393
2017-10-17T10:42:28.236Z,399
2017-10-17T10:43:29.635Z,393
2017-10-17T10:44:31.036Z,388
2017-10-17T10:45:32.431Z,393
2017-10-17T10:46:33.836Z,393
2017-10-17T10:47:35.235Z,393
2017-10-17T10:48:36.638Z,399
2017-10-17T10:49:38.039Z,410
2017-10-17T10:50:39.442Z,421
2017-10-17T10:51:40.841Z,410
2017-10-17T10:52:42.240Z,421
2017-10-17T10:53:43.641Z,365
2017-10-17T10:54:45.039Z,309
2017-10-17T10:55:46.445Z,292
2017-10-17T10:56:47.844Z,275
2017-10-17T10:57:49.244Z,264
2017-10-17T10:58:50.643Z,270
2017-10-17T10:59:52.044Z,275
2017-10-17T11:00:53.447Z,270
2017-10-17T11:01:54.847Z,270
2017-10-17T11:02:56.245Z,264
2017-10-17T11:03:57.649Z,264
2017-10-17T11:04:59.050Z,270
2017-10-17T11:06:00.447Z,275
2017-10-17T11:07:01.847Z,309
2017-10-17T11:08:03.249Z,410
2017-10-17T11:09:04.650Z,427
2017-10-17T11:10:06.049Z,438
2017-10-17T11:11:07.456Z,444
2017-10-17T11:12:08.854Z,450
2017-10-17T11:13:10.254Z,421
2017-10-17T11:14:11.655Z,405
2017-10-17T11:15:13.055Z,354
2017-10-17T11:16:14.459Z,298
2017-10-17T11:17:15.865Z,270
2017-10-17T11:18:17.268Z,270
2017-10-17T11:19:18.663Z,270
2017-10-17T11:20:20.069Z,275
2017-10-17T11:21:21.468Z,275
2017-10-17T11:22:22.868Z,275
2017-10-17T11:23:24.268Z,270
2017-10-17T11:24:25.673Z,270
2017-10-17T11:25:27.074Z,275
2017-10-17T11:26:28.471Z,275
2017-10-17T11:27:29.870Z,275
2017-10-17T11:28:31.270Z,275
2017-10-17T11:29:32.673Z,275
2017-10-17T11:30:34.073Z,275
2017-10-17T11:31:35.472Z,270
2017-10-17T11:32:36.875Z,270
2017-10-17T11:33:38.273Z,270
2017-10-17T11:34:39.672Z,270
2017-10-17T11:35:41.108Z,270
2017-10-17T11:36:42.509Z,264
2017-10-17T11:37:43.909Z,264
2017-10-17T11:38:45.313Z,264
2017-10-17T11:39:46.714Z,258
2017-10-17T11:40:48.112Z,258
2017-10-17T11:41:49.510Z,258
2017-10-17T11:42:50.914Z,264
2017-10-17T11:43:52.314Z,264
2017-10-17T11:44:53.716Z,264
2017-10-17T11:45:55.118Z,264
2017-10-17T11:46:56.522Z,258
2017-10-17T11:47:57.930Z,264
2017-10-17T11:48:59.320Z,258
2017-10-17T11:50:00.721Z,258
2017-10-17T11:51:02.123Z,253
2017-10-17T11:52:03.523Z,253
2017-10-17T11:53:04.924Z,253
2017-10-17T11:54:06.329Z,253
2017-10-17T11:55:07.728Z,253
2017-10-17T11:56:09.126Z,258
2017-10-17T11:57:10.525Z,258
2017-10-17T11:58:11.930Z,253
2017-10-17T11:59:13.327Z,247
2017-10-17T12:00:14.729Z,247
2017-10-17T12:01:16.128Z,247
2017-10-17T12:02:17.526Z,247
2017-10-17T12:03:18.927Z,247
2017-10-17T12:04:20.327Z,253
2017-10-17T12:05:21.728Z,247
2017-10-17T12:06:23.129Z,247
2017-10-17T12:07:24.528Z,241
2017-10-17T12:08:25.944Z,241
2017-10-17T12:09:27.330Z,241
2017-10-17T12:10:28.729Z,241
2017-10-17T12:11:30.128Z,241
2017-10-17T12:12:31.530Z,241
2017-10-17T12:13:32.931Z,241
2017-10-17T12:14:34.335Z,241
2017-10-17T12:15:35.729Z,241
2017-10-17T12:16:37.130Z,247
2017-10-17T12:17:38.531Z,236
2017-10-17T12:18:39.930Z,236
2017-10-17T12:19:41.329Z,236
2017-10-17T12:20:42.729Z,236
2017-10-17T12:21:44.131Z,236
2017-10-17T12:22:45.532Z,236
2017-10-17T12:23:46.937Z,236
2017-10-17T12:24:48.332Z,236
2017-10-17T12:25:49.729Z,230
2017-10-17T12:26:51.128Z,236
2017-10-17T12:27:52.528Z,236
2017-10-17T12:28:53.930Z,236
2017-10-17T12:29:55.330Z,236
2017-10-17T12:30:56.732Z,230
2017-10-17T12:31:58.129Z,230
2017-10-17T12:32:59.526Z,225
2017-10-17T12:34:00.925Z,225
2017-10-17T12:35:02.330Z,225
2017-10-17T12:36:03.729Z,225
2017-10-17T12:37:05.129Z,225
2017-10-17T12:38:06.552Z,225
2017-10-17T12:39:07.956Z,225
2017-10-17T12:40:09.354Z,225
2017-10-17T12:41:10.760Z,225
2017-10-17T12:42:12.155Z,225
2017-10-17T12:43:13.559Z,225
2017-10-17T12:44:14.959Z,225
2017-10-17T12:45:16.365Z,225
2017-10-17T12:46:17.759Z,225
2017-10-17T12:47:19.154Z,219
2017-10-17T12:48:20.554Z,219
2017-10-17T12:49:21.955Z,213
2017-10-17T12:50:23.356Z,213
2017-10-17T12:51:24.764Z,213
2017-10-17T12:52:26.159Z,213
2017-10-17T12:53:27.558Z,219
2017-10-17T12:54:28.958Z,213
2017-10-17T12:55:30.354Z,208
2017-10-17T12:56:31.757Z,208
2017-10-17T12:57:33.161Z,208
2017-10-17T12:58:34.560Z,208
2017-10-17T12:59:35.955Z,208
2017-10-17T13:00:37.362Z,202
2017-10-17T13:01:38.758Z,202
2017-10-17T13:02:40.155Z,202
2017-10-17T13:03:41.558Z,202
2017-10-17T13:04:42.960Z,202
2017-10-17T13:05:44.361Z,208
2017-10-17T13:06:45.759Z,208
2017-10-17T13:07:47.162Z,208
2017-10-17T13:08:48.561Z,208
2017-10-17T13:09:49.958Z,208
2017-10-17T13:10:51.359Z,202
2017-10-17T13:11:52.762Z,202
2017-10-17T13:12:54.157Z,202
2017-10-17T13:13:55.559Z,196
2017-10-17T13:14:56.956Z,196
2017-10-17T13:15:58.355Z,196
2017-10-17T13:16:59.752Z,191
2017-10-17T13:18:01.151Z,196
2017-10-17T13:19:02.555Z,191
2017-10-17T13:20:03.954Z,191
2017-10-17T13:21:05.353Z,191
2017-10-17T13:22:06.757Z,191
2017-10-17T13:23:08.158Z,191
2017-10-17T13:24:09.557Z,191
2017-10-17T13:25:10.960Z,191
2017-10-17T13:26:12.360Z,191
2017-10-17T13:27:13.767Z,191
2017-10-17T13:28:15.165Z,185
2017-10-17T13:29:16.565Z,185
2017-10-17T13:30:17.961Z,185
2017-10-17T13:31:19.361Z,185
2017-10-17T13:32:20.760Z,185
2017-10-17T13:33:22.162Z,185
2017-10-17T13:34:23.560Z,185
2017-10-17T13:35:24.961Z,191
2017-10-17T13:36:26.357Z,191
2017-10-17T13:37:27.754Z,185
2017-10-17T13:38:29.158Z,185
2017-10-17T13:39:30.556Z,185
2017-10-17T13:40:31.959Z,180
2017-10-17T13:41:33.363Z,180
2017-10-17T13:42:34.757Z,180
2017-10-17T13:43:36.154Z,174
2017-10-17T13:44:37.554Z,174
2017-10-17T13:45:38.953Z,174
2017-10-17T13:46:40.355Z,168
2017-10-17T13:47:41.755Z,168
2017-10-17T13:48:43.157Z,168
2017-10-17T13:49:44.557Z,168
2017-10-17T13:50:45.954Z,168
2017-10-17T13:51:47.352Z,168
2017-10-17T13:52:48.751Z,168
2017-10-17T13:53:50.152Z,168
2017-10-17T13:54:51.553Z,163
2017-10-17T13:55:52.954Z,157
2017-10-17T13:56:54.353Z,157
2017-10-17T13:57:55.750Z,151
2017-10-17T13:58:57.146Z,151
2017-10-17T13:59:58.551Z,146
2017-10-17T14:00:59.947Z,146
2017-10-17T14:02:01.347Z,146
2017-10-17T14:03:02.749Z,140
2017-10-17T14:04:04.147Z,140
2017-10-17T14:05:05.548Z,140
2017-10-17T14:06:06.944Z,140
2017-10-17T14:07:08.345Z,140
2017-10-17T14:08:09.746Z,135
2017-10-17T14:09:11.147Z,135
2017-10-17T14:10:12.574Z,135
2017-10-17T14:11:13.942Z,135
2017-10-17T14:12:15.341Z,135
2017-10-17T14:13:16.741Z,135
2017-10-17T14:14:18.139Z,135
2017-10-17T14:15:19.540Z,129
2017-10-17T14:16:20.943Z,129
2017-10-17T14:17:22.344Z,129
2017-10-17T14:18:23.744Z,129
2017-10-17T14:19:25.141Z,129
2017-10-17T14:20:26.542Z,123
2017-10-17T14:21:27.944Z,123
2017-10-17T14:22:29.336Z,123
2017-10-17T14:23:30.738Z,118
2017-10-17T14:24:32.139Z,118
2017-10-17T14:25:33.535Z,112
2017-10-17T14:26:34.930Z,112
2017-10-17T14:27:36.329Z,112
2017-10-17T14:28:37.731Z,106
2017-10-17T14:29:39.128Z,106
2017-10-17T14:30:40.528Z,106
2017-10-17T14:31:41.933Z,106
2017-10-17T14:32:43.326Z,106
2017-10-17T14:33:44.723Z,101
2017-10-17T14:34:46.123Z,101
2017-10-17T14:35:47.521Z,101
2017-10-17T14:36:48.918Z,95
2017-10-17T14:37:50.318Z,95